Time;durP1;ratioP1;P1;durP2;ratioP2;P2;SDS_P1;SDS_P2;PMS_P1;PMS_P2;Temp;Humidity;BMP_temperature;BMP_pressure;BME280_temperature;BME280_humidity;BME280_pressure;Samples;Min_cycle;Max_cycle;Signal;HPM_P1;HPM_P2
2021/08/17 00:02:09;;;;;;;1.42;1.42;;;23.20;51.90;;;;;;4961529;28;20202;-77
2021/08/17 00:04:35;;;;;;;2.03;1.70;;;23.10;52.20;;;;;;4959205;28;20226;-77
2021/08/17 00:07:02;;;;;;;1.50;1.48;;;23.10;52.70;;;;;;4957145;28;20186;-76
2021/08/17 00:09:28;;;;;;;1.55;1.45;;;23.00;53.00;;;;;;4956352;28;20760;-77
2021/08/17 00:11:54;;;;;;;2.25;1.30;;;23.00;52.90;;;;;;4954860;28;20278;-77
2021/08/17 00:14:19;;;;;;;1.63;1.60;;;23.00;53.10;;;;;;4962103;28;20189;-76
2021/08/17 00:16:45;;;;;;;2.92;1.55;;;23.00;53.50;;;;;;4957915;28;20312;-77
2021/08/17 00:19:11;;;;;;;1.50;1.50;;;23.00;53.20;;;;;;4958111;28;20186;-77
2021/08/17 00:21:37;;;;;;;2.20;1.70;;;22.90;53.70;;;;;;4961889;28;20210;-76
2021/08/17 00:24:03;;;;;;;4.47;1.77;;;22.90;53.30;;;;;;4960457;28;20194;-77
2021/08/17 00:26:29;;;;;;;1.77;1.75;;;22.90;53.30;;;;;;4955036;28;20640;-77
2021/08/17 00:28:55;;;;;;;1.50;1.50;;;22.90;53.50;;;;;;4959502;28;20318;-77
2021/08/17 00:31:20;;;;;;;1.77;1.77;;;22.80;53.90;;;;;;4960807;28;20582;-75
2021/08/17 00:33:46;;;;;;;1.23;1.23;;;22.80;53.90;;;;;;4956874;28;20179;-78
2021/08/17 00:36:12;;;;;;;1.60;1.50;;;22.70;54.00;;;;;;4962216;28;20209;-77
2021/08/17 00:38:41;;;;;;;1.70;1.70;;;22.70;54.00;;;;;;4960637;28;20230;-78
2021/08/17 00:41:08;;;;;;;1.77;1.75;;;22.70;54.10;;;;;;4958785;28;20246;-77
2021/08/17 00:43:34;;;;;;;1.90;1.80;;;22.60;54.50;;;;;;4957844;28;20704;-77
2021/08/17 00:46:06;;;;;;;1.98;1.88;;;22.50;54.80;;;;;;4960872;28;20179;-77
2021/08/17 00:48:36;;;;;;;1.88;1.83;;;22.50;54.80;;;;;;4961073;28;20186;-77
2021/08/17 00:51:02;;;;;;;2.20;2.10;;;22.40;55.00;;;;;;4959960;28;20265;-77
2021/08/17 00:53:31;;;;;;;3.40;2.17;;;22.40;55.30;;;;;;4959102;28;20190;-77
2021/08/17 00:55:57;;;;;;;1.42;1.42;;;22.30;55.90;;;;;;4957334;28;20178;-76
2021/08/17 00:58:23;;;;;;;3.50;1.67;;;22.30;54.90;;;;;;4957522;28;20289;-77
2021/08/17 01:00:48;;;;;;;2.00;1.90;;;22.30;55.30;;;;;;4956998;28;20293;-77
2021/08/17 01:03:14;;;;;;;1.63;1.63;;;22.30;55.30;;;;;;4957676;28;20194;-77
2021/08/17 01:05:40;;;;;;;2.55;2.35;;;22.20;55.30;;;;;;4958537;28;20252;-77
2021/08/17 01:08:08;;;;;;;1.83;1.75;;;22.20;55.40;;;;;;4961584;28;20182;-77
2021/08/17 01:10:35;;;;;;;2.40;1.98;;;22.20;55.70;;;;;;4959604;28;20190;-77
2021/08/17 01:13:01;;;;;;;1.80;1.70;;;22.10;55.70;;;;;;4959049;28;20907;-77
2021/08/17 01:15:27;;;;;;;2.00;1.90;;;22.10;56.20;;;;;;4973962;28;20194;-77
2021/08/17 01:17:52;;;;;;;2.10;1.90;;;22.10;55.50;;;;;;4960127;28;20664;-78
2021/08/17 01:20:19;;;;;;;1.95;1.85;;;22.00;56.10;;;;;;4953777;28;20289;-77
2021/08/17 01:22:47;;;;;;;1.98;1.88;;;22.00;55.60;;;;;;4955586;28;20188;-77
2021/08/17 01:25:13;;;;;;;2.03;1.98;;;22.00;55.80;;;;;;4957626;28;20186;-78
2021/08/17 01:27:40;;;;;;;2.15;1.95;;;22.00;56.00;;;;;;4957683;28;20680;-77
2021/08/17 01:30:07;;;;;;;1.58;1.58;;;22.00;56.20;;;;;;4958594;28;20242;-78
2021/08/17 01:32:33;;;;;;;2.08;2.03;;;22.00;56.50;;;;;;4960820;28;20802;-77
2021/08/17 01:34:59;;;;;;;3.15;2.20;;;22.00;55.90;;;;;;4957140;28;20195;-78
2021/08/17 01:37:25;;;;;;;2.10;2.00;;;22.00;56.20;;;;;;4955520;28;20820;-78
2021/08/17 01:40:09;;;;;;;2.28;2.17;;;22.00;56.40;;;;;;4958269;28;20343;-78
2021/08/17 01:42:36;;;;;;;2.40;2.30;;;22.00;57.10;;;;;;4957679;28;20273;-77
2021/08/17 01:45:02;;;;;;;2.10;2.00;;;21.90;56.30;;;;;;4962359;28;20272;-76
2021/08/17 01:47:29;;;;;;;1.95;1.90;;;21.90;56.40;;;;;;4963147;28;20680;-77
2021/08/17 01:49:55;;;;;;;1.95;1.90;;;21.90;56.30;;;;;;4954707;28;20183;-77
2021/08/17 01:52:21;;;;;;;2.28;2.08;;;21.90;56.90;;;;;;4961175;28;20189;-77
2021/08/17 01:54:47;;;;;;;2.25;2.13;;;21.80;56.80;;;;;;4957937;28;20182;-77
2021/08/17 01:57:12;;;;;;;2.70;2.50;;;21.80;57.20;;;;;;4955091;28;20498;-77
2021/08/17 01:59:38;;;;;;;1.92;1.77;;;21.80;57.20;;;;;;4958590;28;20580;-77
2021/08/17 02:02:08;;;;;;;3.10;2.03;;;21.70;57.30;;;;;;4954975;28;20551;-77
2021/08/17 02:04:34;;;;;;;2.38;2.28;;;21.70;57.40;;;;;;4957451;28;20191;-77
2021/08/17 02:07:00;;;;;;;2.95;2.30;;;21.60;57.50;;;;;;4957262;28;20205;-78
2021/08/17 02:09:26;;;;;;;2.75;2.10;;;21.60;57.40;;;;;;4954320;28;20182;-77
2021/08/17 02:11:52;;;;;;;3.00;2.38;;;21.50;57.80;;;;;;4958648;28;20269;-78
2021/08/17 02:14:17;;;;;;;2.53;2.33;;;21.40;57.70;;;;;;4960814;28;20189;-78
2021/08/17 02:16:43;;;;;;;1.48;1.48;;;21.40;58.10;;;;;;4955205;28;20182;-77
2021/08/17 02:19:09;;;;;;;3.33;1.98;;;21.30;57.70;;;;;;4955923;28;20194;-77
2021/08/17 02:21:34;;;;;;;1.60;1.50;;;21.30;57.50;;;;;;4959122;28;20288;-77
2021/08/17 02:24:00;;;;;;;2.03;1.92;;;21.20;57.20;;;;;;4955466;28;20247;-77
2021/08/17 02:26:26;;;;;;;5.63;2.00;;;21.20;57.50;;;;;;4955784;28;20186;-77
2021/08/17 02:28:51;;;;;;;5.15;2.28;;;21.10;57.50;;;;;;4959752;28;20182;-77
2021/08/17 02:31:17;;;;;;;2.17;1.75;;;21.00;57.50;;;;;;4958216;28;20218;-78
2021/08/17 02:33:43;;;;;;;1.73;1.63;;;21.00;57.60;;;;;;4954486;28;20182;-77
2021/08/17 02:36:08;;;;;;;1.95;1.83;;;21.00;57.40;;;;;;4963784;28;20187;-78
2021/08/17 02:38:34;;;;;;;1.58;1.58;;;21.00;57.50;;;;;;4960733;28;20194;-78
2021/08/17 02:41:00;;;;;;;1.80;1.80;;;21.00;57.60;;;;;;4960201;28;20886;-77
2021/08/17 02:43:26;;;;;;;2.65;1.80;;;20.90;57.80;;;;;;4962761;28;20317;-77
2021/08/17 02:45:52;;;;;;;1.55;1.55;;;20.90;58.30;;;;;;4962605;28;20271;-77
2021/08/17 02:48:18;;;;;;;3.60;2.00;;;20.90;57.70;;;;;;4960937;28;20242;-78
2021/08/17 02:50:44;;;;;;;3.20;1.67;;;20.80;58.70;;;;;;4956431;28;20219;-78
2021/08/17 02:53:10;;;;;;;1.77;1.73;;;20.80;58.60;;;;;;4955700;28;20187;-77
2021/08/17 02:55:36;;;;;;;1.80;1.58;;;20.80;58.70;;;;;;4963332;28;20194;-78
2021/08/17 02:58:05;;;;;;;1.88;1.80;;;20.70;58.90;;;;;;4962905;28;20206;-78
2021/08/17 03:00:32;;;;;;;2.10;2.00;;;20.70;58.70;;;;;;4958757;28;20775;-77
2021/08/17 03:02:58;;;;;;;3.22;2.08;;;20.70;59.20;;;;;;4960664;28;20183;-76
2021/08/17 03:05:23;;;;;;;1.90;1.90;;;20.70;59.10;;;;;;4962517;28;20312;-77
2021/08/17 03:07:52;;;;;;;1.65;1.65;;;20.70;58.60;;;;;;4958761;28;20232;-77
2021/08/17 03:10:18;;;;;;;2.00;1.90;;;20.60;58.30;;;;;;4952962;28;20194;-78
2021/08/17 03:12:44;;;;;;;2.63;2.42;;;20.60;58.20;;;;;;4960095;28;20193;-78
2021/08/17 03:15:10;;;;;;;1.85;1.80;;;20.60;58.60;;;;;;4954745;28;20187;-78
2021/08/17 03:17:37;;;;;;;2.10;1.80;;;20.60;58.40;;;;;;4956508;28;20311;-77
2021/08/17 03:20:05;;;;;;;1.65;1.65;;;20.60;58.70;;;;;;4957457;28;20271;-77
2021/08/17 03:22:31;;;;;;;2.85;2.10;;;20.60;58.60;;;;;;4964180;28;20899;-78
2021/08/17 03:24:56;;;;;;;2.03;1.92;;;20.60;58.90;;;;;;4958127;28;20194;-79
2021/08/17 03:27:22;;;;;;;2.35;2.17;;;20.50;58.90;;;;;;4959891;28;20182;-78
2021/08/17 03:29:48;;;;;;;1.67;1.50;;;20.50;59.20;;;;;;4957386;28;20692;-78
2021/08/17 03:32:14;;;;;;;1.98;1.77;;;20.50;59.00;;;;;;4960388;28;20187;-79
2021/08/17 03:34:39;;;;;;;2.13;2.08;;;20.50;58.90;;;;;;4961889;28;20187;-79
2021/08/17 03:37:05;;;;;;;2.08;1.98;;;20.40;59.00;;;;;;4958281;28;20190;-76
2021/08/17 03:39:31;;;;;;;1.95;1.88;;;20.40;59.50;;;;;;4960125;28;20265;-78
2021/08/17 03:41:56;;;;;;;1.88;1.77;;;20.40;59.70;;;;;;4963101;28;20218;-78
2021/08/17 03:44:22;;;;;;;2.35;2.25;;;20.40;59.40;;;;;;4962929;28;20189;-78
2021/08/17 03:46:48;;;;;;;2.17;2.08;;;20.40;59.50;;;;;;4960080;28;20573;-78
2021/08/17 03:49:13;;;;;;;2.70;2.50;;;20.30;59.60;;;;;;4959260;28;20245;-78
2021/08/17 03:51:39;;;;;;;2.10;2.00;;;20.30;59.60;;;;;;4963682;28;20190;-79
2021/08/17 03:54:05;;;;;;;2.92;2.55;;;20.30;59.60;;;;;;4959571;28;20186;-78
2021/08/17 03:56:31;;;;;;;3.85;2.28;;;20.30;59.60;;;;;;4957202;28;20186;-78
2021/08/17 03:58:56;;;;;;;2.45;2.30;;;20.30;59.70;;;;;;4961284;28;20253;-78
2021/08/17 04:01:22;;;;;;;2.58;1.83;;;20.30;59.80;;;;;;4962284;28;20850;-78
2021/08/17 04:03:48;;;;;;;4.75;2.30;;;20.30;59.70;;;;;;4957740;28;20178;-78
2021/08/17 04:06:13;;;;;;;2.63;2.53;;;20.30;59.80;;;;;;4957820;28;20217;-74
2021/08/17 04:08:39;;;;;;;2.17;2.08;;;20.30;59.90;;;;;;4960759;28;20189;-75
2021/08/17 04:11:05;;;;;;;2.47;2.40;;;20.30;59.70;;;;;;4960033;28;20249;-76
2021/08/17 04:13:30;;;;;;;3.28;2.85;;;20.30;59.70;;;;;;4958845;28;20191;-76
2021/08/17 04:15:56;;;;;;;2.50;2.40;;;20.30;59.90;;;;;;4959965;28;20187;-75
2021/08/17 04:18:22;;;;;;;2.40;2.28;;;20.30;60.00;;;;;;4958185;28;20179;-78
2021/08/17 04:20:47;;;;;;;2.47;2.45;;;20.40;60.30;;;;;;4961887;28;20880;-77
2021/08/17 04:23:13;;;;;;;3.97;2.80;;;20.40;60.50;;;;;;4959360;28;20278;-79
2021/08/17 04:25:39;;;;;;;3.85;2.63;;;20.40;60.90;;;;;;4959466;28;20182;-79
2021/08/17 04:28:05;;;;;;;4.18;2.65;;;20.40;60.60;;;;;;4957654;28;20182;-78
2021/08/17 04:30:31;;;;;;;3.25;2.92;;;20.40;62.00;;;;;;4959579;28;20190;-76
2021/08/17 04:32:56;;;;;;;4.78;2.97;;;20.50;60.90;;;;;;4957550;28;20261;-76
2021/08/17 04:35:22;;;;;;;2.97;2.83;;;20.50;60.90;;;;;;4955783;28;20214;-76
2021/08/17 04:37:48;;;;;;;4.15;2.80;;;20.50;61.70;;;;;;4956522;28;21104;-76
2021/08/17 04:40:15;;;;;;;3.47;3.35;;;20.50;61.50;;;;;;4958916;28;20217;-76
2021/08/17 04:42:40;;;;;;;3.53;3.33;;;20.60;61.60;;;;;;4957079;28;20610;-75
2021/08/17 04:45:07;;;;;;;3.45;3.22;;;20.60;61.50;;;;;;4958555;28;20197;-75
2021/08/17 04:47:32;;;;;;;2.63;2.53;;;20.70;61.40;;;;;;4957461;28;20190;-75
2021/08/17 04:49:58;;;;;;;3.33;3.10;;;20.70;61.30;;;;;;4958029;28;21160;-75
2021/08/17 04:52:24;;;;;;;3.13;2.92;;;20.70;61.40;;;;;;4960785;28;20192;-75
2021/08/17 04:54:49;;;;;;;3.13;3.03;;;20.70;61.60;;;;;;4956930;28;20197;-76
2021/08/17 04:57:17;;;;;;;2.80;2.65;;;20.80;61.70;;;;;;4960235;28;20183;-76
2021/08/17 04:59:43;;;;;;;3.08;2.85;;;20.80;61.70;;;;;;4959370;28;20222;-75
2021/08/17 05:02:08;;;;;;;4.97;3.42;;;20.90;61.50;;;;;;4957056;28;20268;-77
2021/08/17 05:04:34;;;;;;;3.30;2.78;;;20.90;61.50;;;;;;4958083;28;20187;-77
2021/08/17 05:07:00;;;;;;;3.58;3.38;;;20.90;61.60;;;;;;4959440;28;20809;-78
2021/08/17 05:09:26;;;;;;;3.40;3.20;;;21.00;61.50;;;;;;4958167;28;20190;-77
2021/08/17 05:11:52;;;;;;;3.40;3.20;;;21.00;61.40;;;;;;4957365;28;20197;-76
2021/08/17 05:14:17;;;;;;;6.00;3.05;;;21.00;61.50;;;;;;4956012;28;20295;-76
2021/08/17 05:16:43;;;;;;;3.72;3.50;;;21.10;61.30;;;;;;4955489;28;20183;-75
2021/08/17 05:19:09;;;;;;;4.03;3.35;;;21.10;61.20;;;;;;4955709;28;20786;-76
2021/08/17 05:21:34;;;;;;;3.45;2.75;;;21.20;61.00;;;;;;4956220;28;20228;-76
2021/08/17 05:24:00;;;;;;;3.63;2.95;;;21.20;60.90;;;;;;4958602;28;20719;-75
2021/08/17 05:26:26;;;;;;;3.40;2.75;;;21.20;61.10;;;;;;4954050;28;20206;-76
2021/08/17 05:28:52;;;;;;;3.38;3.17;;;21.30;61.40;;;;;;4955716;28;20189;-76
2021/08/17 05:31:18;;;;;;;3.35;3.15;;;21.30;61.70;;;;;;4956306;28;20696;-75
2021/08/17 05:33:43;;;;;;;4.30;2.97;;;21.40;61.60;;;;;;4956777;28;20222;-74
2021/08/17 05:36:09;;;;;;;5.30;3.13;;;21.40;61.90;;;;;;4954315;28;20186;-74
2021/08/17 05:38:35;;;;;;;3.65;3.40;;;21.50;62.40;;;;;;4955547;28;20186;-74
2021/08/17 05:41:01;;;;;;;2.80;2.70;;;21.50;62.90;;;;;;4956735;28;21071;-74
2021/08/17 05:43:27;;;;;;;2.70;2.60;;;21.50;62.40;;;;;;4957829;28;20269;-76
2021/08/17 05:45:52;;;;;;;2.67;2.58;;;21.60;62.60;;;;;;4954587;28;20206;-75
2021/08/17 05:48:18;;;;;;;2.85;2.65;;;21.60;62.40;;;;;;4958059;28;20805;-74
2021/08/17 05:50:44;;;;;;;2.33;2.22;;;21.60;62.40;;;;;;4958216;28;20183;-76
2021/08/17 05:53:09;;;;;;;2.65;2.55;;;21.70;62.20;;;;;;4954270;28;20207;-77
2021/08/17 05:55:35;;;;;;;3.08;2.90;;;21.70;62.20;;;;;;4959836;28;20186;-76
2021/08/17 05:58:05;;;;;;;3.30;2.67;;;21.80;62.30;;;;;;4959176;28;20202;-75
2021/08/17 06:00:30;;;;;;;3.10;3.00;;;21.80;62.50;;;;;;4954910;28;20215;-77
2021/08/17 06:02:56;;;;;;;2.88;2.67;;;21.90;62.50;;;;;;4954687;28;20815;-76
2021/08/17 06:05:22;;;;;;;2.88;2.75;;;22.00;62.40;;;;;;4956278;28;20193;-77
2021/08/17 06:07:49;;;;;;;3.22;2.97;;;22.00;62.10;;;;;;4955920;28;20527;-77
2021/08/17 06:10:16;;;;;;;3.10;2.90;;;22.10;62.10;;;;;;4957528;28;20718;-76
2021/08/17 06:12:43;;;;;;;3.10;2.97;;;22.10;61.80;;;;;;4959622;28;20183;-77
2021/08/17 06:15:10;;;;;;;3.47;2.92;;;22.20;62.10;;;;;;4963640;28;20189;-76
2021/08/17 06:17:36;;;;;;;3.10;3.00;;;22.20;61.50;;;;;;4961760;28;20183;-76
2021/08/17 06:20:08;;;;;;;3.05;2.85;;;22.30;61.30;;;;;;4964511;28;20230;-76
2021/08/17 06:22:34;;;;;;;3.78;3.03;;;22.40;61.00;;;;;;4959043;28;20182;-76
2021/08/17 06:25:00;;;;;;;3.33;3.00;;;22.50;61.20;;;;;;4958105;28;20193;-76
2021/08/17 06:27:25;;;;;;;4.13;3.13;;;22.50;61.30;;;;;;4960733;28;20644;-76
2021/08/17 06:29:51;;;;;;;3.05;2.90;;;22.60;61.40;;;;;;4959196;28;20183;-77
2021/08/17 06:32:20;;;;;;;2.63;2.53;;;22.60;61.60;;;;;;4956459;28;20194;-76
2021/08/17 06:34:47;;;;;;;2.92;2.72;;;22.70;61.30;;;;;;4955319;28;20189;-77
2021/08/17 06:37:13;;;;;;;3.05;2.83;;;22.80;61.90;;;;;;4961932;28;20646;-76
2021/08/17 06:39:38;;;;;;;2.75;2.65;;;22.80;60.70;;;;;;4962992;28;20185;-77
2021/08/17 06:42:04;;;;;;;3.08;2.63;;;22.80;60.90;;;;;;4958074;28;20221;-76
2021/08/17 06:44:30;;;;;;;5.63;2.75;;;22.90;60.70;;;;;;4958632;28;20183;-77
2021/08/17 06:46:56;;;;;;;2.97;2.88;;;23.00;60.90;;;;;;4954853;28;20190;-76
2021/08/17 06:49:21;;;;;;;3.03;2.83;;;23.00;60.90;;;;;;4959775;28;20671;-76
2021/08/17 06:51:47;;;;;;;2.85;2.75;;;23.10;60.90;;;;;;4974279;28;20217;-76
2021/08/17 06:54:13;;;;;;;5.78;2.80;;;23.10;62.10;;;;;;4960320;28;20269;-76
2021/08/17 06:56:38;;;;;;;3.30;2.67;;;23.20;61.20;;;;;;4956388;28;20673;-76
2021/08/17 06:59:04;;;;;;;2.67;2.58;;;23.30;61.70;;;;;;4961080;28;20264;-76
2021/08/17 07:01:30;;;;;;;3.92;2.70;;;23.40;60.80;;;;;;4958405;28;20257;-76
2021/08/17 07:03:55;;;;;;;2.78;2.58;;;23.40;60.70;;;;;;4953917;28;20731;-76
2021/08/17 07:06:21;;;;;;;2.80;2.60;;;23.50;60.90;;;;;;4962061;28;20269;-76
2021/08/17 07:08:47;;;;;;;2.72;2.58;;;23.50;60.40;;;;;;4961036;28;20279;-76
2021/08/17 07:11:13;;;;;;;2.80;2.60;;;23.60;60.40;;;;;;4961366;28;20241;-76
2021/08/17 07:13:38;;;;;;;3.47;3.13;;;23.70;60.50;;;;;;4957405;28;20190;-77
2021/08/17 07:16:04;;;;;;;3.20;2.90;;;23.80;60.60;;;;;;4960864;28;20197;-76
2021/08/17 07:18:30;;;;;;;2.63;2.45;;;23.90;60.10;;;;;;4959872;28;20186;-76
2021/08/17 07:20:56;;;;;;;2.28;2.17;;;23.90;60.00;;;;;;4954894;28;20223;-74
2021/08/17 07:23:22;;;;;;;7.75;3.10;;;24.00;60.10;;;;;;4958680;28;20187;-75
2021/08/17 07:25:48;;;;;;;2.90;2.65;;;24.10;60.00;;;;;;4958025;28;20702;-74
2021/08/17 07:28:14;;;;;;;4.20;2.38;;;24.20;59.90;;;;;;4956631;28;20188;-76
2021/08/17 07:30:40;;;;;;;2.78;2.67;;;24.30;59.70;;;;;;4956962;28;20636;-75
2021/08/17 07:33:07;;;;;;;4.30;2.45;;;24.30;59.30;;;;;;4957535;28;20503;-74
2021/08/17 07:35:33;;;;;;;2.35;2.25;;;24.40;59.10;;;;;;4953350;28;20187;-74
2021/08/17 07:38:00;;;;;;;3.20;2.97;;;24.50;59.40;;;;;;4957658;28;20293;-75
2021/08/17 07:40:26;;;;;;;3.03;2.92;;;24.60;59.00;;;;;;4960791;28;20225;-74
2021/08/17 07:42:53;;;;;;;2.38;2.30;;;24.60;58.80;;;;;;4963301;28;20835;-75
2021/08/17 07:45:18;;;;;;;2.33;2.33;;;24.70;59.10;;;;;;4955849;28;20188;-75
2021/08/17 07:47:44;;;;;;;2.63;2.42;;;24.80;59.20;;;;;;4960073;28;20182;-76
2021/08/17 07:50:12;;;;;;;2.70;2.47;;;24.90;59.20;;;;;;4958856;28;20631;-77
2021/08/17 07:52:38;;;;;;;3.38;3.08;;;25.00;59.40;;;;;;4959812;28;20182;-78
2021/08/17 07:55:06;;;;;;;2.85;2.75;;;25.10;58.90;;;;;;4957870;28;20664;-76
2021/08/17 07:57:32;;;;;;;3.65;2.80;;;25.20;58.70;;;;;;4958384;28;20202;-77
2021/08/17 07:59:58;;;;;;;3.20;3.10;;;25.30;58.70;;;;;;4954678;28;20183;-76
2021/08/17 08:02:24;;;;;;;2.85;2.75;;;25.30;58.30;;;;;;4956945;28;20249;-74
2021/08/17 08:04:50;;;;;;;3.33;2.65;;;25.40;57.90;;;;;;4962582;28;21041;-75
2021/08/17 08:07:15;;;;;;;3.25;3.15;;;25.50;57.70;;;;;;4956988;28;20632;-75
2021/08/17 08:09:41;;;;;;;3.08;2.97;;;25.60;58.10;;;;;;4955153;28;20230;-76
2021/08/17 08:12:10;;;;;;;3.05;2.85;;;25.60;57.70;;;;;;4956516;28;20256;-75
2021/08/17 08:14:36;;;;;;;3.17;2.78;;;25.70;57.90;;;;;;4958905;28;20580;-75
2021/08/17 08:17:02;;;;;;;3.28;2.92;;;25.80;57.40;;;;;;4955706;28;20212;-75
2021/08/17 08:19:28;;;;;;;3.13;2.97;;;25.90;57.30;;;;;;4957683;28;20190;-75
2021/08/17 08:21:53;;;;;;;3.20;2.92;;;26.00;57.40;;;;;;4954948;28;20223;-75
2021/08/17 08:24:19;;;;;;;3.05;2.95;;;26.10;57.10;;;;;;4960274;28;20244;-75
2021/08/17 08:26:45;;;;;;;2.63;2.53;;;26.20;57.60;;;;;;4958117;28;20664;-76
2021/08/17 08:29:11;;;;;;;3.10;2.92;;;26.40;57.60;;;;;;4952300;28;20258;-75
2021/08/17 08:31:36;;;;;;;3.08;2.88;;;26.50;57.10;;;;;;4953119;28;20218;-74
2021/08/17 10:15:09;;;;;;;4.07;3.58;;;39.90;41.80;;;;;;5103615;27;20276;-74
2021/08/17 10:17:35;;;;;;;4.80;4.20;;;40.40;41.20;;;;;;5110122;28;20176;-76
2021/08/17 10:20:03;;;;;;;4.05;3.63;;;40.80;41.30;;;;;;5110477;28;20259;-74
2021/08/17 10:22:29;;;;;;;4.20;3.83;;;41.20;40.80;;;;;;5109854;28;20688;-74
2021/08/17 10:25:04;;;;;;;4.07;3.83;;;41.60;41.10;;;;;;5111400;27;20591;-74
2021/08/17 10:27:36;;;;;;;5.07;4.40;;;42.20;40.80;;;;;;5110872;28;21074;-74
2021/08/17 10:30:11;;;;;;;5.05;4.35;;;42.60;40.20;;;;;;5108210;28;20177;-75
2021/08/17 10:32:58;;;;;;;5.00;4.50;;;43.00;39.60;;;;;;5109647;27;20783;-75
2021/08/17 10:35:26;;;;;;;4.20;4.10;;;43.50;39.80;;;;;;5108564;28;20214;-75
2021/08/17 10:38:07;;;;;;;4.35;4.15;;;43.90;39.80;;;;;;5111949;27;20177;-75
2021/08/17 10:40:51;;;;;;;4.97;4.55;;;44.00;38.60;;;;;;5111893;27;20172;-74
2021/08/17 10:43:32;;;;;;;15.23;4.38;;;44.30;39.10;;;;;;5106380;28;20185;-75
2021/08/17 10:46:02;;;;;;;6.38;4.00;;;44.60;40.10;;;;;;5109625;27;20189;-75
2021/08/17 10:48:49;;;;;;;5.13;4.05;;;44.90;38.00;;;;;;5111110;28;20181;-75
2021/08/17 10:51:17;;;;;;;4.63;4.38;;;45.10;38.70;;;;;;5104284;28;20187;-75
2021/08/17 10:53:44;;;;;;;4.68;4.30;;;45.10;38.50;;;;;;5106877;28;20243;-75
2021/08/17 10:56:31;;;;;;;4.50;4.30;;;45.30;39.20;;;;;;5107511;27;20601;-75
2021/08/17 10:58:58;;;;;;;4.70;4.50;;;45.30;37.90;;;;;;5108738;28;20240;-75
2021/08/17 11:01:39;;;;;;;4.47;4.32;;;45.30;39.80;;;;;;5109564;27;20185;-75
2021/08/17 11:04:20;;;;;;;4.30;4.00;;;45.60;38.70;;;;;;5111252;28;20172;-75
2021/08/17 11:06:56;;;;;;;4.40;4.20;;;45.80;38.00;;;;;;5103853;28;20182;-75
2021/08/17 11:09:37;;;;;;;5.15;4.72;;;46.00;38.20;;;;;;5110428;28;20180;-75
2021/08/17 11:12:08;;;;;;;5.82;5.43;;;46.20;36.70;;;;;;5104187;28;20185;-75
2021/08/17 11:14:36;;;;;;;4.90;3.85;;;46.30;37.50;;;;;;5106686;28;20570;-75
2021/08/17 11:17:04;;;;;;;5.03;4.63;;;46.60;38.10;;;;;;5105774;28;20716;-75
2021/08/17 11:19:32;;;;;;;6.88;4.53;;;46.80;37.70;;;;;;5106410;27;20567;-75
2021/08/17 11:22:03;;;;;;;6.95;4.88;;;47.10;37.60;;;;;;5108671;27;20188;-75
2021/08/17 11:24:36;;;;;;;5.45;4.88;;;47.30;37.30;;;;;;5108556;27;20203;-75
2021/08/17 11:27:07;;;;;;;5.45;5.18;;;47.70;36.30;;;;;;5091564;28;20215;-75
2021/08/17 11:29:44;;;;;;;4.72;4.53;;;47.90;37.30;;;;;;5098749;28;20219;-75
2021/08/17 11:32:46;;;;;;;5.75;5.00;;;48.10;37.20;;;;;;5091495;28;20268;-75
2021/08/17 11:35:30;;;;;;;4.53;4.22;;;48.40;36.40;;;;;;5096787;28;20689;-75
2021/08/17 11:37:57;;;;;;;5.75;4.85;;;48.60;36.80;;;;;;5093459;28;20246;-75
2021/08/17 11:40:25;;;;;;;5.45;5.15;;;49.00;37.80;;;;;;5088627;28;20962;-75
2021/08/17 11:42:56;;;;;;;5.68;5.32;;;49.30;36.30;;;;;;5096155;28;20182;-75
2021/08/17 11:45:24;;;;;;;6.20;5.32;;;49.50;36.90;;;;;;5094113;28;20237;-75
2021/08/17 11:47:51;;;;;;;7.07;5.95;;;49.80;37.10;;;;;;5092801;28;20193;-75
2021/08/17 11:50:21;;;;;;;6.38;5.78;;;50.10;36.30;;;;;;5094665;28;20639;-75
2021/08/17 11:52:51;;;;;;;6.30;5.95;;;50.20;35.70;;;;;;5098119;28;20600;-75
2021/08/17 11:55:21;;;;;;;5.85;5.22;;;49.90;36.70;;;;;;5097126;28;20186;-75
2021/08/17 11:57:53;;;;;;;5.57;5.38;;;49.80;36.50;;;;;;5096154;28;20209;-75
2021/08/17 12:00:21;;;;;;;7.15;6.43;;;49.80;36.20;;;;;;5095038;28;20648;-75
2021/08/17 12:02:51;;;;;;;6.95;6.60;;;50.00;36.50;;;;;;5094874;28;20227;-75
2021/08/17 12:05:19;;;;;;;6.93;6.55;;;50.20;36.10;;;;;;5095525;28;20185;-75
2021/08/17 12:07:46;;;;;;;7.20;6.70;;;50.50;36.00;;;;;;5095888;28;20189;-75
2021/08/17 12:10:19;;;;;;;6.85;6.55;;;50.30;36.00;;;;;;5101645;28;20184;-75
2021/08/17 12:13:02;;;;;;;7.28;6.78;;;49.60;35.40;;;;;;5092427;28;20178;-75
2021/08/17 12:15:31;;;;;;;8.25;7.47;;;49.20;35.10;;;;;;5093989;28;20181;-75
2021/08/17 12:18:01;;;;;;;7.65;7.25;;;48.60;36.70;;;;;;5100593;28;20258;-75
2021/08/17 12:20:27;;;;;;;8.77;7.95;;;48.30;36.30;;;;;;5100886;28;20204;-75
2021/08/17 12:22:53;;;;;;;7.97;7.47;;;48.30;37.40;;;;;;5098965;28;20178;-75
2021/08/17 12:25:24;;;;;;;8.07;7.53;;;48.30;37.30;;;;;;5089588;28;20184;-75
2021/08/17 12:27:58;;;;;;;7.47;6.97;;;48.50;36.80;;;;;;5089876;28;20633;-74
2021/08/17 12:30:34;;;;;;;8.23;7.50;;;48.90;36.30;;;;;;5092401;28;20561;-74
2021/08/17 12:33:01;;;;;;;7.53;7.00;;;49.20;36.30;;;;;;5091423;28;20181;-75
2021/08/17 12:35:31;;;;;;;7.20;6.85;;;49.50;36.60;;;;;;5089941;28;20242;-75
2021/08/17 12:38:16;;;;;;;7.45;7.05;;;49.80;35.70;;;;;;5089898;28;20276;-74
2021/08/17 12:40:49;;;;;;;7.97;7.47;;;49.90;35.40;;;;;;5091358;28;20219;-75
2021/08/17 12:43:20;;;;;;;7.85;7.45;;;50.10;35.80;;;;;;5089571;28;20216;-74
2021/08/17 12:45:46;;;;;;;9.15;8.57;;;50.30;35.40;;;;;;5088975;28;20185;-74
2021/08/17 12:48:14;;;;;;;10.60;9.77;;;50.40;35.40;;;;;;5096369;28;20695;-74
2021/08/17 12:50:41;;;;;;;9.25;8.73;;;50.40;35.60;;;;;;5091839;28;20978;-74
2021/08/17 12:53:24;;;;;;;9.55;8.82;;;50.40;36.20;;;;;;5089274;28;20196;-73
2021/08/17 12:55:52;;;;;;;8.95;8.23;;;50.50;35.60;;;;;;5092328;28;20263;-74
2021/08/17 12:58:22;;;;;;;10.60;9.82;;;50.60;35.90;;;;;;5089928;28;20178;-74
2021/08/17 13:00:48;;;;;;;10.77;9.90;;;50.70;35.30;;;;;;5097272;28;20177;-74
2021/08/17 13:03:15;;;;;;;11.15;10.38;;;50.80;35.30;;;;;;5094726;28;20288;-74
2021/08/17 13:05:43;;;;;;;12.15;11.27;;;50.80;35.60;;;;;;5094125;28;20260;-74
2021/08/17 13:08:10;;;;;;;16.38;11.40;;;50.70;35.70;;;;;;5090088;28;20178;-74
2021/08/17 13:10:37;;;;;;;12.70;11.77;;;50.50;35.20;;;;;;5093298;28;20256;-74
2021/08/17 13:13:03;;;;;;;13.70;12.10;;;50.20;34.70;;;;;;5088823;28;20192;-74
2021/08/17 13:15:30;;;;;;;13.63;12.43;;;49.50;35.40;;;;;;5100127;28;20181;-76
2021/08/17 13:17:56;;;;;;;12.95;11.95;;;48.50;36.10;;;;;;5098106;28;20261;-76
2021/08/17 13:20:24;;;;;;;12.70;11.73;;;47.50;37.20;;;;;;5098000;28;20758;-74
2021/08/17 13:22:52;;;;;;;12.63;11.68;;;46.60;36.30;;;;;;5091252;28;20671;-74
2021/08/17 13:25:19;;;;;;;14.15;12.85;;;45.70;37.40;;;;;;5093455;28;20169;-74
2021/08/17 13:27:46;;;;;;;14.23;11.90;;;45.00;37.40;;;;;;5094096;28;20232;-74
2021/08/17 13:30:12;;;;;;;11.45;10.55;;;44.10;37.60;;;;;;5092924;28;20239;-74
2021/08/17 13:32:38;;;;;;;12.20;11.20;;;43.50;38.50;;;;;;5092022;28;20172;-74
2021/08/17 13:35:05;;;;;;;11.02;10.15;;;43.00;38.70;;;;;;5093231;28;20173;-74
2021/08/17 13:37:31;;;;;;;10.45;9.63;;;42.50;38.80;;;;;;5097051;28;20197;-76
2021/08/17 13:39:57;;;;;;;10.00;9.13;;;42.00;39.30;;;;;;5096282;28;20185;-76
2021/08/17 13:42:23;;;;;;;9.65;8.95;;;41.70;39.50;;;;;;5095052;28;20232;-76
2021/08/17 13:44:53;;;;;;;10.57;9.63;;;41.50;40.10;;;;;;5098479;28;20202;-76
2021/08/17 13:47:19;;;;;;;9.40;8.80;;;41.70;40.30;;;;;;5088539;28;20192;-76
2021/08/17 13:49:45;;;;;;;10.23;9.43;;;42.00;39.70;;;;;;5091388;28;20180;-78
2021/08/17 13:52:13;;;;;;;9.98;9.07;;;42.00;39.60;;;;;;5086547;28;20192;-78
2021/08/17 13:54:39;;;;;;;9.85;9.07;;;41.70;39.60;;;;;;5090657;28;20181;-78
2021/08/17 13:57:05;;;;;;;9.25;8.52;;;41.40;40.00;;;;;;5092363;28;20189;-78
2021/08/17 13:59:31;;;;;;;9.90;8.45;;;41.10;40.30;;;;;;5091533;28;20184;-75
2021/08/17 14:01:57;;;;;;;8.70;7.88;;;40.80;40.50;;;;;;5087931;28;20185;-78
2021/08/17 14:04:23;;;;;;;10.55;7.75;;;40.80;40.70;;;;;;5085775;28;20232;-78
2021/08/17 14:06:49;;;;;;;8.55;7.95;;;41.00;40.40;;;;;;5089819;28;20178;-78
2021/08/17 14:09:15;;;;;;;8.35;7.72;;;41.20;39.80;;;;;;5089629;28;20181;-78
2021/08/17 14:11:42;;;;;;;9.60;8.05;;;41.30;39.60;;;;;;5089675;28;20188;-78
2021/08/17 14:14:09;;;;;;;9.05;8.13;;;41.50;39.70;;;;;;5085115;28;20639;-78
2021/08/17 14:16:36;;;;;;;8.18;7.68;;;41.70;39.40;;;;;;5090977;28;20201;-78
2021/08/17 14:19:02;;;;;;;9.52;7.63;;;42.00;39.70;;;;;;5087821;28;20185;-78
2021/08/17 14:21:28;;;;;;;9.15;8.32;;;42.40;39.20;;;;;;5094840;28;20223;-76
2021/08/17 14:23:55;;;;;;;8.80;7.95;;;42.60;39.10;;;;;;5094150;28;20871;-77
2021/08/17 14:26:30;;;;;;;8.75;8.02;;;42.70;39.10;;;;;;5091683;28;20587;-76
2021/08/17 14:28:58;;;;;;;8.48;7.93;;;42.80;39.00;;;;;;5093730;28;20610;-76